Time;durP1;ratioP1;P1;durP2;ratioP2;P2;SDS_P1;SDS_P2;PMS_P1;PMS_P2;Temp;Humidity;BMP_temperature;BMP_pressure;BME280_temperature;BME280_humidity;BME280_pressure;Samples;Min_cycle;Max_cycle;Signal;HPM_P1;HPM_P2
2021/11/18 00:01:18;;;;;;;8.90;1.83;;;6.80;99.90;;;;;;6237655;22;20492;-62
2021/11/18 00:03:44;;;;;;;14.40;2.05;;;6.80;99.90;;;;;;6239623;22;20054;-62
2021/11/18 00:06:11;;;;;;;8.35;2.35;;;6.80;99.90;;;;;;6239465;22;20007;-62
2021/11/18 01:40:07;;;;;;;10.77;2.22;;;7.00;99.90;;;;;;6240616;22;20044;-62
2021/11/18 01:42:32;;;;;;;12.57;3.05;;;7.00;99.90;;;;;;6239118;22;20067;-62
2021/11/18 01:44:58;;;;;;;9.65;2.30;;;7.00;99.90;;;;;;6239965;23;20012;-62
2021/11/18 01:47:24;;;;;;;17.48;2.65;;;7.00;99.90;;;;;;6240257;22;20015;-62
2021/11/18 01:49:50;;;;;;;16.95;2.50;;;7.00;99.90;;;;;;6242049;22;20012;-62
2021/11/18 01:52:27;;;;;;;16.30;2.67;;;6.90;99.90;;;;;;6240757;22;20008;-62
2021/11/18 01:54:53;;;;;;;13.25;3.33;;;6.90;99.90;;;;;;6239527;23;20086;-62
2021/11/18 01:57:25;;;;;;;14.50;2.53;;;7.00;99.90;;;;;;6241271;22;20092;-62
2021/11/18 01:59:54;;;;;;;8.15;2.33;;;7.00;99.90;;;;;;6239582;23;20050;-62
2021/11/18 02:02:22;;;;;;;11.25;2.47;;;7.00;99.90;;;;;;6239621;22;20011;-63
2021/11/18 02:04:50;;;;;;;17.52;3.17;;;7.10;99.90;;;;;;6241204;22;20016;-63
2021/11/18 02:07:17;;;;;;;17.08;2.60;;;7.10;99.90;;;;;;6240536;22;20016;-62
2021/11/18 02:09:45;;;;;;;23.88;2.70;;;7.20;99.90;;;;;;6240984;22;20005;-62
2021/11/18 02:12:25;;;;;;;21.40;3.58;;;7.10;99.90;;;;;;6239946;22;20012;-62
2021/11/18 02:14:52;;;;;;;9.82;2.03;;;7.20;99.90;;;;;;6241206;22;20034;-62
2021/11/18 02:17:19;;;;;;;16.48;2.85;;;7.20;99.90;;;;;;6240863;22;20015;-62
2021/11/18 02:19:59;;;;;;;18.73;3.60;;;7.30;99.90;;;;;;6241283;22;20008;-62
2021/11/18 02:22:26;;;;;;;16.80;3.42;;;7.30;99.90;;;;;;6240248;22;20343;-61
2021/11/18 02:24:58;;;;;;;13.13;3.10;;;7.40;99.90;;;;;;6240789;22;20385;-62
2021/11/18 02:27:28;;;;;;;20.30;3.58;;;7.40;99.90;;;;;;6239847;22;20069;-63
2021/11/18 02:29:56;;;;;;;17.77;2.95;;;7.40;99.90;;;;;;6241395;22;20005;-62
2021/11/18 02:32:27;;;;;;;8.63;2.50;;;7.40;99.90;;;;;;6239803;22;20008;-62
2021/11/18 02:34:52;;;;;;;18.38;3.15;;;7.50;99.90;;;;;;6241436;22;20004;-62
2021/11/18 02:37:18;;;;;;;25.92;2.63;;;7.50;99.90;;;;;;6240358;22;20008;-63
2021/11/18 02:39:45;;;;;;;23.00;3.75;;;7.60;99.90;;;;;;6241313;22;20046;-62
2021/11/18 02:42:12;;;;;;;13.95;2.63;;;7.60;99.90;;;;;;6240118;22;20012;-63
2021/11/18 02:44:38;;;;;;;13.20;2.58;;;7.60;99.90;;;;;;6240969;22;20446;-61
2021/11/18 02:47:11;;;;;;;10.07;2.92;;;7.60;99.90;;;;;;6240223;22;20458;-65
2021/11/18 02:49:42;;;;;;;12.48;2.70;;;7.60;99.90;;;;;;6240598;22;20009;-63
2021/11/18 02:52:08;;;;;;;;;;;7.60;99.90;;;;;;6240836;22;20008;-62
2021/11/18 02:54:34;;;;;;;11.80;2.42;;;7.60;99.90;;;;;;6240783;22;19903;-62
2021/11/18 02:56:59;;;;;;;15.77;2.42;;;7.60;99.90;;;;;;6240985;22;20735;-62
2021/11/18 02:59:25;;;;;;;14.85;3.42;;;7.60;99.90;;;;;;6239519;22;20016;-62
2021/11/18 03:01:51;;;;;;;19.50;3.97;;;7.70;99.90;;;;;;6240457;22;20016;-62
2021/11/18 03:04:16;;;;;;;12.23;2.78;;;7.60;99.90;;;;;;6240432;22;20461;-62
2021/11/18 03:06:42;;;;;;;17.90;3.55;;;7.70;99.90;;;;;;6240398;22;20107;-62
2021/11/18 03:09:09;;;;;;;10.88;3.17;;;7.70;99.90;;;;;;6240713;22;20010;-62
2021/11/18 03:11:35;;;;;;;11.55;3.70;;;7.70;99.90;;;;;;6237905;22;20016;-62
2021/11/18 03:14:02;;;;;;;16.08;3.60;;;7.80;99.90;;;;;;6240876;22;20507;-62
2021/11/18 03:16:27;;;;;;;15.63;3.00;;;7.70;99.90;;;;;;6239341;22;20087;-62
2021/11/18 03:18:53;;;;;;;14.68;2.50;;;7.80;99.90;;;;;;6240554;22;20422;-62
2021/11/18 03:21:23;;;;;;;27.02;3.28;;;7.80;99.90;;;;;;6240095;22;20007;-62
2021/11/18 03:23:50;;;;;;;9.77;1.88;;;7.80;99.90;;;;;;6240203;22;20034;-63
2021/11/18 03:26:19;;;;;;;11.18;2.53;;;7.80;99.90;;;;;;6239584;22;20083;-63
2021/11/18 03:28:45;;;;;;;12.60;2.53;;;7.80;99.90;;;;;;6239144;22;20015;-63
2021/11/18 03:31:14;;;;;;;13.50;2.53;;;7.80;99.90;;;;;;6239101;22;20076;-64
2021/11/18 03:33:44;;;;;;;20.63;3.17;;;7.80;99.90;;;;;;6240018;22;20023;-64
2021/11/18 03:36:10;;;;;;;15.73;2.60;;;7.80;99.90;;;;;;6239961;22;20012;-63
2021/11/18 03:38:37;;;;;;;18.48;2.60;;;7.80;99.90;;;;;;6240223;22;20016;-62
2021/11/18 03:41:04;;;;;;;12.73;3.00;;;7.80;99.90;;;;;;6240879;22;20390;-63
2021/11/18 03:43:36;;;;;;;22.38;3.97;;;7.90;99.90;;;;;;6239448;22;20506;-63
2021/11/18 03:46:03;;;;;;;13.45;2.70;;;8.00;99.90;;;;;;6240377;22;20008;-62
2021/11/18 03:48:33;;;;;;;18.08;3.10;;;7.90;99.90;;;;;;6239310;22;20008;-63
2021/11/18 03:51:01;;;;;;;14.27;2.65;;;7.90;99.90;;;;;;6239155;22;20012;-62
2021/11/18 03:53:26;;;;;;;20.35;3.80;;;7.90;99.90;;;;;;6239419;22;20096;-62
2021/11/18 03:55:52;;;;;;;14.73;2.72;;;7.90;99.90;;;;;;6239067;23;20431;-63
2021/11/18 03:58:19;;;;;;;16.23;3.08;;;8.00;99.90;;;;;;6238950;22;20012;-62
2021/11/18 04:00:45;;;;;;;10.48;2.97;;;7.90;99.90;;;;;;6240002;22;20004;-62
2021/11/18 04:03:12;;;;;;;24.05;3.38;;;7.90;99.90;;;;;;6239920;22;20000;-62
2021/11/18 04:05:39;;;;;;;17.67;3.65;;;7.90;99.90;;;;;;6240088;22;20015;-63
2021/11/18 04:08:06;;;;;;;10.15;3.58;;;7.90;99.90;;;;;;6239859;22;20079;-64
2021/11/18 04:10:33;;;;;;;10.40;2.67;;;7.90;99.90;;;;;;6240134;22;20021;-63
2021/11/18 04:13:00;;;;;;;16.08;2.45;;;7.90;99.90;;;;;;6238343;23;20365;-62
2021/11/18 04:15:27;;;;;;;20.27;4.32;;;7.90;99.90;;;;;;6239030;22;20083;-62
2021/11/18 04:17:53;;;;;;;18.25;3.00;;;7.90;99.90;;;;;;6240321;22;20375;-62
2021/11/18 04:20:19;;;;;;;9.55;2.47;;;7.80;99.90;;;;;;6239909;22;20453;-62
2021/11/18 04:22:47;;;;;;;12.93;2.28;;;7.80;99.90;;;;;;6240109;22;20521;-62
2021/11/18 04:25:16;;;;;;;15.35;2.42;;;7.80;99.90;;;;;;6239846;22;20015;-62
2021/11/18 04:27:42;;;;;;;12.77;2.55;;;7.80;99.90;;;;;;6239261;22;20008;-63
2021/11/18 04:30:12;;;;;;;18.35;3.10;;;7.80;99.90;;;;;;6239908;22;20004;-62
2021/11/18 04:32:38;;;;;;;19.42;3.63;;;7.80;99.90;;;;;;6239727;22;20008;-62
2021/11/18 04:35:05;;;;;;;16.70;3.38;;;7.80;99.90;;;;;;6240587;22;20039;-62
2021/11/18 04:37:30;;;;;;;13.90;2.95;;;7.70;99.90;;;;;;6237615;22;20489;-63
2021/11/18 04:39:56;;;;;;;30.17;4.95;;;7.70;99.90;;;;;;6240427;22;20090;-62
2021/11/18 04:42:22;;;;;;;19.50;2.63;;;7.60;99.90;;;;;;6238527;22;20023;-62
2021/11/18 04:44:48;;;;;;;16.75;3.03;;;7.60;99.90;;;;;;6240012;22;20058;-62
2021/11/18 04:47:14;;;;;;;15.32;3.05;;;7.60;99.90;;;;;;6239670;22;20004;-61
2021/11/18 04:49:44;;;;;;;13.57;2.65;;;7.60;99.90;;;;;;6238216;22;20087;-62
2021/11/18 04:52:11;;;;;;;13.60;3.55;;;7.60;99.90;;;;;;6241818;22;20442;-62
2021/11/18 04:54:37;;;;;;;16.65;2.63;;;7.50;99.90;;;;;;6239662;22;20023;-65
2021/11/18 04:57:03;;;;;;;29.70;4.50;;;7.50;99.90;;;;;;6240277;23;20063;-63
2021/11/18 04:59:30;;;;;;;16.10;2.72;;;7.50;99.90;;;;;;6240842;22;20012;-62
2021/11/18 05:01:55;;;;;;;23.88;4.13;;;7.50;99.90;;;;;;6242215;22;20027;-62
2021/11/18 05:04:21;;;;;;;13.68;3.28;;;7.60;99.90;;;;;;6241039;22;20439;-64
2021/11/18 05:06:46;;;;;;;16.00;2.60;;;7.60;99.90;;;;;;6242119;22;20008;-63
2021/11/18 05:09:12;;;;;;;19.80;2.72;;;7.70;99.90;;;;;;6239772;22;20022;-64
2021/11/18 05:11:40;;;;;;;16.23;2.78;;;7.70;99.90;;;;;;6240880;22;20350;-62
2021/11/18 05:14:06;;;;;;;16.33;4.40;;;7.80;99.90;;;;;;6241347;22;20502;-62
2021/11/18 05:16:31;;;;;;;20.20;3.10;;;7.80;99.90;;;;;;6241533;22;20020;-62
2021/11/18 05:18:57;;;;;;;14.75;3.30;;;7.80;99.90;;;;;;6239981;23;20062;-62
2021/11/18 05:21:25;;;;;;;19.85;2.47;;;7.80;99.90;;;;;;6240630;22;20058;-62
2021/11/18 05:23:52;;;;;;;17.90;2.65;;;7.80;99.90;;;;;;6241793;22;20016;-62
2021/11/18 05:26:19;;;;;;;20.10;2.90;;;7.80;99.90;;;;;;6241318;22;20027;-63
2021/11/18 05:28:45;;;;;;;15.15;3.42;;;7.80;99.90;;;;;;6241490;22;20016;-62
2021/11/18 05:31:13;;;;;;;19.45;3.65;;;7.90;99.90;;;;;;6240978;22;20058;-62
2021/11/18 05:33:41;;;;;;;24.58;2.78;;;8.00;99.90;;;;;;6241411;22;20087;-62
2021/11/18 05:36:07;;;;;;;21.65;2.67;;;8.00;99.90;;;;;;6241595;22;20004;-63
2021/11/18 05:38:33;;;;;;;19.80;3.90;;;8.00;99.90;;;;;;6240501;22;20411;-63
2021/11/18 05:41:00;;;;;;;21.55;3.58;;;8.00;99.90;;;;;;6241466;22;20008;-62
2021/11/18 05:43:28;;;;;;;19.08;3.35;;;8.10;99.90;;;;;;6240438;22;20023;-62
2021/11/18 05:45:55;;;;;;;22.08;3.95;;;8.10;99.90;;;;;;6241877;22;20139;-63
2021/11/18 05:48:21;;;;;;;14.95;2.42;;;8.10;99.90;;;;;;6239520;22;20012;-63
2021/11/18 05:50:51;;;;;;;28.17;3.25;;;8.10;99.90;;;;;;6241438;22;20035;-62
2021/11/18 05:53:25;;;;;;;21.40;3.40;;;8.10;99.90;;;;;;6240481;22;20024;-62
2021/11/18 05:55:52;;;;;;;15.75;2.92;;;8.20;99.90;;;;;;6233067;23;20027;-61
2021/11/18 05:58:18;;;;;;;14.15;3.70;;;8.20;99.90;;;;;;6237974;22;20012;-63
2021/11/18 06:00:44;;;;;;;17.77;3.97;;;8.20;99.90;;;;;;6235177;22;20000;-63
2021/11/18 06:03:10;;;;;;;19.25;3.22;;;8.20;99.90;;;;;;6237182;22;20011;-62
2021/11/18 06:05:35;;;;;;;23.85;3.50;;;8.10;99.90;;;;;;6237103;22;20012;-62
2021/11/18 06:08:01;;;;;;;24.98;4.72;;;8.10;99.90;;;;;;6238831;22;20043;-62
2021/11/18 06:10:29;;;;;;;22.13;3.15;;;8.10;99.90;;;;;;6236004;22;20000;-62
2021/11/18 06:12:55;;;;;;;11.13;2.92;;;8.10;99.90;;;;;;6235882;23;20004;-64
2021/11/18 06:15:21;;;;;;;14.10;3.25;;;8.10;99.90;;;;;;6237367;22;20075;-62
2021/11/18 06:17:47;;;;;;;22.85;4.32;;;8.10;99.90;;;;;;6236823;23;20679;-63
2021/11/18 06:20:15;;;;;;;23.35;3.58;;;8.00;99.90;;;;;;6237683;22;20016;-62
2021/11/18 06:22:42;;;;;;;24.50;3.45;;;8.10;99.90;;;;;;6235639;22;20030;-63
2021/11/18 06:25:09;;;;;;;15.55;2.47;;;8.00;99.90;;;;;;6237620;22;20103;-63
2021/11/18 06:27:37;;;;;;;14.73;3.15;;;7.90;99.90;;;;;;6237694;22;20016;-61
2021/11/18 06:30:05;;;;;;;16.55;3.22;;;8.00;99.90;;;;;;6237372;22;20012;-63
2021/11/18 06:32:31;;;;;;;17.85;3.50;;;7.90;99.90;;;;;;6234958;22;20001;-62
2021/11/18 06:34:57;;;;;;;13.88;2.42;;;7.90;99.90;;;;;;6237551;22;20018;-62
2021/11/18 06:37:23;;;;;;;16.23;3.70;;;7.80;99.90;;;;;;6236847;22;20618;-62
2021/11/18 06:39:49;;;;;;;15.40;3.17;;;7.70;99.90;;;;;;6237508;22;20350;-62
2021/11/18 06:42:15;;;;;;;9.02;2.80;;;7.70;99.90;;;;;;6237484;22;20039;-63
2021/11/18 06:44:42;;;;;;;28.85;3.58;;;7.80;99.90;;;;;;6237545;22;20000;-62
2021/11/18 06:47:08;;;;;;;22.63;4.68;;;7.70;99.90;;;;;;6236925;22;20152;-63
2021/11/18 06:49:34;;;;;;;21.08;3.40;;;7.60;99.90;;;;;;6237253;22;20079;-63
2021/11/18 06:52:01;;;;;;;10.70;4.15;;;7.60;99.90;;;;;;6237487;22;20012;-62
2021/11/18 06:54:26;;;;;;;15.95;3.40;;;7.50;99.90;;;;;;6234801;22;20019;-61
2021/11/18 06:56:52;;;;;;;13.60;3.72;;;7.50;99.90;;;;;;6237518;22;20012;-62
2021/11/18 06:59:17;;;;;;;16.00;3.42;;;7.50;99.90;;;;;;6237097;22;20012;-64
2021/11/18 07:01:43;;;;;;;13.73;4.03;;;7.50;99.90;;;;;;6236639;22;20011;-62
2021/11/18 07:04:09;;;;;;;18.45;5.53;;;7.50;99.90;;;;;;6236801;22;20182;-64
2021/11/18 07:06:36;;;;;;;20.50;3.78;;;7.60;99.90;;;;;;6236983;22;20024;-61
2021/11/18 07:09:05;;;;;;;23.25;3.63;;;7.60;99.90;;;;;;6236778;22;20346;-63
2021/11/18 07:11:31;;;;;;;19.38;4.28;;;7.60;99.90;;;;;;6236144;22;20027;-62
2021/11/18 07:13:57;;;;;;;17.20;4.00;;;7.60;99.90;;;;;;6237606;22;20353;-62
2021/11/18 07:16:24;;;;;;;13.70;3.30;;;7.60;99.90;;;;;;6236950;22;20514;-63
2021/11/18 07:18:50;;;;;;;14.93;2.92;;;7.70;99.90;;;;;;6238120;22;20016;-63
2021/11/18 07:21:17;;;;;;;10.95;3.85;;;7.70;99.90;;;;;;6234722;22;20376;-67
2021/11/18 07:23:44;;;;;;;13.32;5.03;;;7.70;99.90;;;;;;6237815;22;20012;-64
2021/11/18 07:26:10;;;;;;;21.13;3.95;;;7.80;99.90;;;;;;6237302;22;20020;-62
2021/11/18 07:28:38;;;;;;;18.70;3.25;;;7.70;99.90;;;;;;6236369;22;20310;-62
2021/11/18 07:31:04;;;;;;;23.88;4.22;;;7.80;99.90;;;;;;6237298;22;20011;-62
2021/11/18 07:33:32;;;;;;;18.98;3.47;;;7.80;99.90;;;;;;6235877;22;20024;-62
2021/11/18 07:35:58;;;;;;;16.25;3.85;;;7.80;99.90;;;;;;6237577;22;20008;-62
2021/11/18 07:38:26;;;;;;;13.27;4.07;;;7.80;99.90;;;;;;6235873;22;20032;-62
2021/11/18 07:40:52;;;;;;;15.43;3.75;;;7.80;99.90;;;;;;6237063;22;20008;-64
2021/11/18 07:43:22;;;;;;;16.23;4.13;;;7.70;99.90;;;;;;6236758;22;20008;-62
2021/11/18 07:45:50;;;;;;;15.45;4.53;;;7.80;99.90;;;;;;6237634;22;20047;-63
2021/11/18 07:48:16;;;;;;;14.95;5.00;;;7.80;99.90;;;;;;6235974;22;20008;-63
2021/11/18 07:50:44;;;;;;;22.02;4.38;;;7.80;99.90;;;;;;6236958;22;20061;-62
2021/11/18 07:53:10;;;;;;;17.33;3.33;;;7.80;99.90;;;;;;6237147;22;20015;-62
2021/11/18 07:55:36;;;;;;;25.17;4.10;;;7.80;99.90;;;;;;6236399;22;20035;-63
2021/11/18 07:58:02;;;;;;;26.20;4.65;;;7.80;99.90;;;;;;6237034;22;20000;-63
2021/11/18 08:00:29;;;;;;;16.17;3.63;;;7.80;99.90;;;;;;6236007;22;20016;-62
2021/11/18 08:02:54;;;;;;;22.05;4.53;;;7.70;99.90;;;;;;6237251;22;20095;-62
2021/11/18 08:05:21;;;;;;;13.80;3.70;;;7.70;99.90;;;;;;6235085;22;20043;-62
2021/11/18 08:07:47;;;;;;;25.48;6.50;;;7.80;99.90;;;;;;6237148;22;20038;-62
2021/11/18 08:10:14;;;;;;;12.02;3.40;;;7.80;99.90;;;;;;6234390;22;20016;-62
2021/11/18 08:12:40;;;;;;;16.75;3.90;;;7.80;99.90;;;;;;6234379;22;20019;-63
2021/11/18 08:15:09;;;;;;;18.35;4.00;;;7.80;99.90;;;;;;6236614;22;20008;-67
2021/11/18 08:17:35;;;;;;;18.65;3.83;;;7.80;99.90;;;;;;6237239;22;20483;-64
2021/11/18 08:20:01;;;;;;;16.65;3.35;;;7.80;99.90;;;;;;6237516;22;20011;-61
2021/11/18 08:22:27;;;;;;;20.77;3.90;;;7.80;99.90;;;;;;6234334;22;20012;-62
2021/11/18 08:24:53;;;;;;;27.55;4.68;;;7.80;99.90;;;;;;6237439;22;20026;-62
2021/11/18 08:27:19;;;;;;;18.10;3.80;;;7.80;99.90;;;;;;6234236;22;20043;-63
2021/11/18 08:29:44;;;;;;;16.13;3.92;;;7.90;99.90;;;;;;6236592;22;20008;-63
2021/11/18 08:32:11;;;;;;;16.15;3.95;;;7.90;99.90;;;;;;6235927;22;20066;-63
2021/11/18 08:34:37;;;;;;;16.98;4.30;;;8.00;99.90;;;;;;6237062;22;20054;-62
2021/11/18 08:37:03;;;;;;;21.33;3.00;;;8.00;99.90;;;;;;6238874;22;20027;-62
2021/11/18 08:39:30;;;;;;;15.25;3.17;;;8.00;99.90;;;;;;6239644;22;20039;-62
2021/11/18 08:41:59;;;;;;;17.30;4.03;;;8.10;99.90;;;;;;6242064;22;20008;-63
2021/11/18 08:44:27;;;;;;;18.52;4.28;;;8.20;99.90;;;;;;6240754;22;20082;-62
2021/11/18 08:46:54;;;;;;;13.77;4.07;;;8.30;99.90;;;;;;6238634;22;20008;-63
2021/11/18 08:49:21;;;;;;;19.38;3.90;;;8.30;99.90;;;;;;6237693;22;20446;-64
2021/11/18 08:51:47;;;;;;;15.95;3.97;;;8.40;99.90;;;;;;6234869;22;20389;-63
2021/11/18 08:54:19;;;;;;;15.13;3.40;;;8.50;99.90;;;;;;6237776;22;20012;-62
2021/11/18 08:56:44;;;;;;;28.80;5.35;;;8.60;99.90;;;;;;6235501;22;20008;-63
2021/11/18 08:59:10;;;;;;;19.98;3.25;;;8.70;99.90;;;;;;6238928;22;20008;-62
2021/11/18 09:01:42;;;;;;;18.08;3.58;;;8.70;99.90;;;;;;6241610;22;20012;-62
2021/11/18 09:04:11;;;;;;;24.67;3.30;;;8.80;99.90;;;;;;6240409;22;20058;-62
2021/11/18 09:06:37;;;;;;;12.25;3.30;;;8.90;99.90;;;;;;6238714;22;20039;-63
2021/11/18 09:09:05;;;;;;;16.10;3.47;;;8.90;99.90;;;;;;6235781;23;20435;-62
2021/11/18 09:11:31;;;;;;;14.50;4.15;;;9.00;99.90;;;;;;6236392;22;20016;-63
2021/11/18 09:13:57;;;;;;;18.63;3.55;;;9.10;99.90;;;;;;6237760;22;20005;-63
2021/11/18 09:16:25;;;;;;;15.27;3.90;;;9.20;99.90;;;;;;6234889;22;20016;-62
2021/11/18 09:18:51;;;;;;;17.52;4.00;;;9.30;99.90;;;;;;6235627;23;20012;-62
2021/11/18 09:21:20;;;;;;;17.42;4.03;;;9.40;99.90;;;;;;6236661;22;20027;-63
2021/11/18 09:24:17;;;;;;;14.23;4.05;;;9.40;99.90;;;;;;6235351;23;20008;-63
2021/11/18 09:26:48;;;;;;;14.40;3.72;;;9.50;99.90;;;;;;6235070;22;20423;-65
2021/11/18 09:29:14;;;;;;;16.00;3.85;;;9.60;99.90;;;;;;6234789;22;20012;-67
2021/11/18 09:31:40;;;;;;;18.08;3.70;;;9.60;99.90;;;;;;6234732;22;20466;-63
2021/11/18 09:34:05;;;;;;;14.27;3.13;;;9.50;99.90;;;;;;6237606;22;20046;-64
2021/11/18 09:36:31;;;;;;;18.52;4.55;;;9.50;99.90;;;;;;6237375;22;20008;-62
2021/11/18 09:38:59;;;;;;;22.23;4.47;;;9.40;99.90;;;;;;6237840;23;20012;-62
2021/11/18 09:41:28;;;;;;;19.70;3.25;;;9.50;99.90;;;;;;6235903;22;20036;-62
2021/11/18 09:43:56;;;;;;;16.80;3.67;;;9.40;99.90;;;;;;6236999;23;20372;-63
2021/11/18 09:46:40;;;;;;;18.40;3.20;;;9.50;99.90;;;;;;6237352;22;20012;-63
2021/11/18 09:49:33;;;;;;;15.95;3.67;;;9.30;99.90;;;;;;6237287;23;20004;-63
2021/11/18 09:52:24;;;;;;;18.92;3.25;;;9.30;99.90;;;;;;6235677;22;20012;-63
2021/11/18 09:55:02;;;;;;;19.00;3.83;;;9.30;99.90;;;;;;6237883;22;20039;-66
2021/11/18 09:57:52;;;;;;;16.02;3.13;;;9.40;99.90;;;;;;6237685;22;20011;-63
2021/11/18 10:00:39;;;;;;;27.10;3.60;;;9.50;99.90;;;;;;6237285;22;20387;-62
2021/11/18 10:03:55;;;;;;;13.75;3.65;;;9.60;99.90;;;;;;6236189;23;20012;-63
2021/11/18 10:06:37;;;;;;;24.15;3.80;;;9.80;99.90;;;;;;6135402;22;20019;-61
2021/11/18 10:09:16;;;;;;;23.90;2.83;;;9.80;99.90;;;;;;6236460;23;20019;-62
2021/11/18 10:12:14;;;;;;;13.68;2.88;;;9.90;99.90;;;;;;6236364;22;20214;-62
2021/11/18 10:14:54;;;;;;;20.35;3.20;;;10.00;99.90;;;;;;6236149;22;20036;-62
2021/11/18 10:17:29;;;;;;;15.00;3.20;;;10.10;99.90;;;;;;6237042;22;20012;-62
2021/11/18 10:20:06;;;;;;;15.57;3.38;;;10.10;99.90;;;;;;6237631;22;20012;-63
2021/11/18 10:22:35;;;;;;;13.65;2.70;;;10.30;99.90;;;;;;6237133;23;20019;-62
2021/11/18 10:25:03;;;;;;;10.93;2.38;;;10.30;99.90;;;;;;6211362;23;20023;-62
2021/11/18 10:27:40;;;;;;;21.35;3.33;;;10.40;99.90;;;;;;6210190;23;20414;-62
2021/11/18 10:30:15;;;;;;;8.95;2.60;;;10.40;99.90;;;;;;6238027;22;20004;-62
2021/11/18 10:32:53;;;;;;;26.15;2.97;;;10.40;99.90;;;;;;6237507;22;20397;-63
2021/11/18 10:35:28;;;;;;;14.07;3.75;;;10.50;99.90;;;;;;6237841;22;20675;-63
2021/11/18 10:38:13;;;;;;;14.50;3.33;;;10.50;99.90;;;;;;6238041;22;20615;-68
2021/11/18 10:40:55;;;;;;;18.92;3.72;;;10.50;99.90;;;;;;6235251;22;20827;-62
2021/11/18 10:43:21;;;;;;;23.40;4.38;;;10.60;99.90;;;;;;6232816;22;20099;-63
2021/11/18 10:45:59;;;;;;;18.58;4.05;;;10.80;99.90;;;;;;6234760;22;20071;-64
2021/11/18 10:48:28;;;;;;;17.13;3.10;;;11.00;99.90;;;;;;6233438;22;20012;-64
2021/11/18 10:50:56;;;;;;;15.65;4.35;;;11.30;99.90;;;;;;6234715;22;20008;-63
2021/11/18 10:53:25;;;;;;;17.05;3.65;;;11.40;99.90;;;;;;6234982;22;20008;-62
2021/11/18 10:56:03;;;;;;;16.53;3.13;;;11.30;99.90;;;;;;6234710;22;20004;-63
2021/11/18 10:58:35;;;;;;;15.75;3.70;;;11.20;99.90;;;;;;6233281;22;20012;-62
2021/11/18 11:01:22;;;;;;;14.57;3.65;;;11.10;99.90;;;;;;6235053;22;20000;-63
2021/11/18 11:03:48;;;;;;;14.82;4.00;;;11.00;99.90;;;;;;6232250;23;20103;-63
2021/11/18 11:06:18;;;;;;;19.33;4.25;;;11.10;99.90;;;;;;6234276;22;20051;-64
2021/11/18 11:08:51;;;;;;;13.10;3.40;;;11.40;99.90;;;;;;6232638;22;20004;-63
2021/11/18 11:11:36;;;;;;;17.95;3.50;;;11.60;99.90;;;;;;6232907;22;20429;-63
2021/11/18 11:14:26;;;;;;;14.10;2.85;;;11.70;99.90;;;;;;6229248;23;20719;-65
2021/11/18 11:17:17;;;;;;;21.45;4.15;;;11.60;99.90;;;;;;6234141;22;20019;-62
2021/11/18 11:20:11;;;;;;;16.33;2.60;;;11.50;99.90;;;;;;6233605;22;20040;-62
2021/11/18 11:22:49;;;;;;;21.80;2.92;;;11.40;99.90;;;;;;6231935;22;20158;-62
2021/11/18 11:25:23;;;;;;;12.32;3.53;;;11.30;99.90;;;;;;6233293;22;20027;-64
2021/11/18 11:27:58;;;;;;;19.08;2.60;;;11.20;99.90;;;;;;6236219;22;20387;-62
2021/11/18 11:30:46;;;;;;;14.63;3.28;;;11.20;99.90;;;;;;6235697;22;20043;-63
2021/11/18 11:33:29;;;;;;;17.98;3.05;;;11.10;99.90;;;;;;6233393;22;20008;-64
2021/11/18 11:36:17;;;;;;;14.48;3.40;;;11.10;99.90;;;;;;6231495;22;20465;-61
2021/11/18 11:38:51;;;;;;;17.08;3.80;;;11.10;99.90;;;;;;6231774;22;20055;-62
2021/11/18 11:41:35;;;;;;;15.70;4.10;;;11.10;99.90;;;;;;6233052;22;20016;-63
2021/11/18 11:44:19;;;;;;;14.85;2.95;;;11.10;99.90;;;;;;6232591;23;20012;-62
2021/11/18 11:46:59;;;;;;;16.40;2.60;;;11.20;99.90;;;;;;6231558;22;20028;-65
2021/11/18 11:49:34;;;;;;;13.43;2.90;;;11.20;99.90;;;;;;6233230;22;20046;-62
2021/11/18 11:52:03;;;;;;;17.13;2.83;;;11.20;99.90;;;;;;6233829;22;20263;-63
2021/11/18 11:54:55;;;;;;;10.40;3.15;;;11.30;99.90;;;;;;6235637;22;20012;-63
2021/11/18 11:57:32;;;;;;;18.58;2.95;;;11.30;99.90;;;;;;6232952;23;20012;-63
2021/11/18 12:00:16;;;;;;;12.38;2.85;;;11.30;99.90;;;;;;6234030;22;20016;-62
2021/11/18 12:03:02;;;;;;;8.38;2.53;;;11.40;99.90;;;;;;6233862;22;20042;-63
2021/11/18 12:05:46;;;;;;;15.38;2.83;;;11.40;99.90;;;;;;6235902;22;20008;-63
2021/11/18 12:08:18;;;;;;;12.65;2.83;;;11.40;99.90;;;;;;6232810;22;20022;-64
2021/11/18 12:11:02;;;;;;;18.88;3.15;;;11.40;99.90;;;;;;6235973;22;20017;-63
2021/11/18 12:13:53;;;;;;;13.57;2.92;;;11.40;99.90;;;;;;6233932;23;20023;-62
2021/11/18 12:16:57;;;;;;;24.10;3.25;;;11.30;99.90;;;;;;6237956;22;20019;-64
2021/11/18 12:19:40;;;;;;;18.15;3.00;;;11.40;99.90;;;;;;6119495;23;20400;-63
2021/11/18 12:22:44;;;;;;;11.73;2.22;;;11.40;99.90;;;;;;6227419;22;20020;-63
2021/11/18 12:25:31;;;;;;;13.32;2.67;;;11.40;99.90;;;;;;6221421;22;20016;-62
2021/11/18 12:28:12;;;;;;;15.55;3.25;;;11.40;99.90;;;;;;6237289;22;20377;-63
2021/11/18 12:30:47;;;;;;;17.40;2.75;;;11.40;99.90;;;;;;6236239;22;20091;-62
2021/11/18 12:33:18;;;;;;;10.88;2.95;;;11.50;99.90;;;;;;6237000;22;20020;-62
2021/11/18 12:35:49;;;;;;;18.48;3.40;;;11.50;99.90;;;;;;6238347;22;20016;-64
2021/11/18 12:38:39;;;;;;;14.68;3.55;;;11.40;99.90;;;;;;6236163;22;20027;-62
2021/11/18 12:41:13;;;;;;;16.00;2.78;;;11.50;99.90;;;;;;6237390;22;20020;-62
2021/11/18 12:44:01;;;;;;;15.75;2.78;;;11.60;99.90;;;;;;6235693;23;20345;-61
2021/11/18 12:47:00;;;;;;;20.55;3.28;;;11.60;99.90;;;;;;6236066;23;20023;-62
2021/11/18 12:49:38;;;;;;;11.77;2.70;;;11.80;99.90;;;;;;6237448;22;20446;-63
2021/11/18 12:52:06;;;;;;;18.15;2.67;;;11.80;99.90;;;;;;6236896;22;20052;-62
2021/11/18 12:54:43;;;;;;;12.25;2.45;;;11.90;99.90;;;;;;6237954;22;20020;-63
2021/11/18 12:57:31;;;;;;;14.43;2.35;;;11.90;99.90;;;;;;6237435;22;20108;-63
2021/11/18 13:00:09;;;;;;;16.67;4.22;;;12.00;99.90;;;;;;6237291;22;20070;-64
2021/11/18 13:02:38;;;;;;;16.08;2.72;;;12.10;99.90;;;;;;6237625;22;20012;-62
2021/11/18 13:05:24;;;;;;;15.77;2.55;;;12.00;99.90;;;;;;6236850;22;20020;-62
2021/11/18 13:07:53;;;;;;;18.85;2.90;;;12.00;99.90;;;;;;6237522;22;20082;-62
2021/11/18 13:10:18;;;;;;;20.52;3.10;;;12.10;99.90;;;;;;6237660;22;20008;-63
2021/11/18 13:13:04;;;;;;;14.70;2.85;;;12.10;99.90;;;;;;6239300;22;20063;-63
2021/11/18 13:15:45;;;;;;;13.27;2.00;;;12.10;99.90;;;;;;6223151;22;20109;-62
2021/11/18 13:18:28;;;;;;;15.20;2.92;;;12.00;99.90;;;;;;6236897;22;20020;-63
2021/11/18 13:21:04;;;;;;;21.48;2.38;;;12.00;99.90;;;;;;6237354;22;20066;-63
2021/11/18 13:23:51;;;;;;;10.73;2.47;;;12.00;99.90;;;;;;6239407;22;20015;-63
2021/11/18 13:26:22;;;;;;;16.00;2.55;;;12.10;99.90;;;;;;6237193;23;20020;-62
2021/11/18 13:29:13;;;;;;;16.83;3.17;;;12.10;99.90;;;;;;6237977;23;20016;-63
2021/11/18 13:31:41;;;;;;;14.40;2.17;;;12.10;99.90;;;;;;6237364;22;20089;-62
2021/11/18 13:34:26;;;;;;;9.50;2.50;;;12.10;99.90;;;;;;6238767;22;20016;-64
2021/11/18 13:37:10;;;;;;;12.27;2.55;;;12.00;99.90;;;;;;6240033;22;20008;-62
2021/11/18 13:39:48;;;;;;;9.02;2.03;;;12.00;99.90;;;;;;6239453;22;20099;-62
2021/11/18 13:42:29;;;;;;;11.65;2.50;;;12.00;99.90;;;;;;6238864;22;20058;-63
2021/11/18 13:45:14;;;;;;;14.65;2.28;;;12.00;99.90;;;;;;6238878;22;20039;-62
2021/11/18 13:47:55;;;;;;;21.77;3.15;;;12.00;99.90;;;;;;6237803;23;20294;-62
2021/11/18 13:50:32;;;;;;;14.82;2.85;;;11.90;99.90;;;;;;6239295;22;20475;-62
2021/11/18 13:53:17;;;;;;;16.05;2.85;;;11.90;99.90;;;;;;6239343;22;20095;-61
2021/11/18 13:55:57;;;;;;;27.27;2.72;;;12.00;99.90;;;;;;6238915;23;20023;-63
2021/11/18 13:58:31;;;;;;;17.43;2.27;;;11.90;99.90;;;;;;6238877;22;20058;-63
2021/11/18 14:01:02;;;;;;;18.40;3.00;;;11.90;99.90;;;;;;6239193;22;20012;-63
2021/11/18 14:03:30;;;;;;;17.00;2.55;;;12.00;99.90;;;;;;6237467;23;20027;-64
2021/11/18 14:06:02;;;;;;;14.75;2.58;;;11.90;99.90;;;;;;6239059;22;20340;-62
2021/11/18 14:08:29;;;;;;;13.13;2.05;;;12.00;99.90;;;;;;6239484;22;20035;-62
2021/11/18 14:11:03;;;;;;;17.35;2.60;;;12.00;99.90;;;;;;6237127;22;20012;-62
2021/11/18 14:13:49;;;;;;;17.40;2.13;;;12.00;99.90;;;;;;6239767;22;20008;-63
2021/11/18 14:16:37;;;;;;;14.45;2.20;;;12.00;99.90;;;;;;6239220;22;20062;-63
2021/11/18 14:19:14;;;;;;;13.65;1.73;;;11.90;99.90;;;;;;6239242;22;20020;-62
2021/11/18 14:21:40;;;;;;;15.68;1.95;;;11.90;99.90;;;;;;6239330;22;20008;-62
2021/11/18 14:24:08;;;;;;;15.68;3.03;;;11.80;99.90;;;;;;6236808;22;20051;-63
2021/11/18 14:26:55;;;;;;;13.18;2.55;;;11.90;99.90;;;;;;6239321;22;20020;-64
2021/11/18 14:29:26;;;;;;;21.05;2.75;;;11.90;99.90;;;;;;6235962;23;20607;-63
2021/11/18 14:31:53;;;;;;;14.48;2.15;;;11.90;99.90;;;;;;6238556;22;20593;-62
2021/11/18 14:34:24;;;;;;;18.08;3.78;;;11.90;99.90;;;;;;6238646;22;20014;-62
2021/11/18 14:36:57;;;;;;;14.80;1.77;;;11.80;99.90;;;;;;6239334;22;20024;-62